createdAt,value
2022-09-06T00:02:46.241Z,100209.89
2022-09-06T00:05:48.005Z,100215.35
2022-09-06T00:08:49.837Z,100215.24
2022-09-06T00:11:51.504Z,100215.70
2022-09-06T00:14:53.256Z,100214.82
2022-09-06T00:17:55.079Z,100213.55
2022-09-06T00:20:56.843Z,100212.94
2022-09-06T00:23:58.526Z,100211.40
2022-09-06T00:27:00.289Z,100208.54
2022-09-06T00:30:02.035Z,100205.45
2022-09-06T00:33:03.922Z,100204.90
2022-09-06T00:36:05.917Z,100202.63
2022-09-06T00:39:07.587Z,100202.77
2022-09-06T00:42:11.042Z,100202.89
2022-09-06T00:45:13.534Z,100203.58
2022-09-06T00:48:15.891Z,100202.98
2022-09-06T00:51:18.666Z,100192.55
2022-09-06T00:54:20.447Z,100192.16
2022-09-06T00:57:26.998Z,100192.05
2022-09-06T01:00:28.743Z,100193.90
2022-09-06T01:03:30.545Z,100194.88
2022-09-06T01:06:45.186Z,100192.45
2022-09-06T01:10:31.257Z,100194.88
2022-09-06T01:13:39.088Z,100199.75
2022-09-06T01:16:49.449Z,100202.06
2022-09-06T01:20:09.692Z,100207.52
2022-09-06T01:23:43.487Z,100205.98
2022-09-06T01:27:14.230Z,100204.48
2022-09-06T01:30:17.701Z,100202.13
2022-09-06T01:33:26.511Z,100197.36
2022-09-06T01:36:36.062Z,100195.61
2022-09-06T01:39:41.207Z,100191.92
2022-09-06T01:42:45.045Z,100193.23
2022-09-06T01:46:05.051Z,100190.98
2022-09-06T01:49:24.569Z,100184.44
2022-09-06T01:52:30.155Z,100188.01
2022-09-06T01:55:32.944Z,100190.43
2022-09-06T01:59:12.385Z,100188.89
2022-09-06T02:02:42.148Z,100180.64
2022-09-06T02:05:51.327Z,100175.65
2022-09-06T02:09:03.392Z,100172.85
2022-09-06T02:12:06.097Z,100171.98
2022-09-06T02:15:16.348Z,100172.55
2022-09-06T02:18:31.968Z,100174.44
2022-09-06T02:21:37.216Z,100176.05
2022-09-06T02:24:40.800Z,100177.05
2022-09-06T02:27:42.529Z,100173.38
2022-09-06T02:30:47.501Z,100167.39
2022-09-06T02:33:50.554Z,100167.77
2022-09-06T02:36:52.426Z,100168.18
2022-09-06T02:39:57.064Z,100168.39
2022-09-06T02:42:58.889Z,100165.04
2022-09-06T02:46:00.637Z,100163.22
2022-09-06T02:49:03.897Z,100163.77
2022-09-06T02:52:05.749Z,100167.10
2022-09-06T02:55:07.986Z,100168.30
2022-09-06T02:58:11.771Z,100165.71
2022-09-06T03:01:13.538Z,100165.30
2022-09-06T03:04:15.594Z,100164.75
2022-09-06T03:07:17.294Z,100164.91
2022-09-06T03:10:19.137Z,100162.43
2022-09-06T03:13:21.327Z,100166.54
2022-09-06T03:16:23.123Z,100162.38
2022-09-06T03:19:24.966Z,100155.84
2022-09-06T03:22:26.881Z,100147.48
2022-09-06T03:25:28.574Z,100145.63
2022-09-06T03:28:30.757Z,100145.02
2022-09-06T03:31:32.626Z,100150.59
2022-09-06T03:34:34.317Z,100151.64
2022-09-06T03:37:36.096Z,100161.36
2022-09-06T03:40:37.761Z,100160.92
2022-09-06T03:43:39.430Z,100164.65
2022-09-06T03:46:41.112Z,100165.30
2022-09-06T03:49:42.718Z,100165.50
2022-09-06T03:52:44.439Z,100160.55
2022-09-06T03:55:48.115Z,100153.67
2022-09-06T03:58:50.127Z,100155.59
2022-09-06T04:01:51.839Z,100156.49
2022-09-06T04:04:55.653Z,100154.97
2022-09-06T04:07:57.343Z,100156.88
2022-09-06T04:10:59.802Z,100155.69
2022-09-06T04:14:01.560Z,100155.67
2022-09-06T04:17:03.569Z,100152.17
2022-09-06T04:20:05.958Z,100151.02
2022-09-06T04:23:08.125Z,100152.46
2022-09-06T04:26:09.869Z,100154.99
2022-09-06T04:29:11.530Z,100154.91
2022-09-06T04:32:13.227Z,100158.71
2022-09-06T04:35:14.884Z,100159.70
2022-09-06T04:38:17.085Z,100158.56
2022-09-06T04:41:19.346Z,100161.16
2022-09-06T04:44:21.044Z,100161.60
2022-09-06T04:47:23.313Z,100163.10
2022-09-06T04:50:25.101Z,100158.95
2022-09-06T04:53:26.808Z,100157.48
2022-09-06T04:56:28.456Z,100160.30
2022-09-06T04:59:30.523Z,100163.66
2022-09-06T05:02:32.305Z,100162.80
2022-09-06T05:05:34.081Z,100162.64
2022-09-06T05:08:39.535Z,100164.14
2022-09-06T05:11:41.287Z,100162.83
2022-09-06T05:14:42.997Z,100164.20
2022-09-06T05:17:44.783Z,100167.19
2022-09-06T05:20:52.285Z,100166.68
2022-09-06T05:23:58.367Z,100164.67
2022-09-06T05:27:03.924Z,100165.59
2022-09-06T05:30:06.022Z,100169.45
2022-09-06T05:33:08.859Z,100166.55
2022-09-06T05:36:10.545Z,100164.84
2022-09-06T05:39:12.206Z,100167.75
2022-09-06T05:42:19.000Z,100170.02
2022-09-06T05:45:21.401Z,100171.10
2022-09-06T05:48:23.360Z,100173.90
2022-09-06T05:51:25.117Z,100175.60
2022-09-06T05:54:27.198Z,100170.89
2022-09-06T05:57:48.712Z,100167.13
2022-09-06T06:00:50.792Z,100170.19
2022-09-06T06:03:58.965Z,100169.30
2022-09-06T06:07:00.604Z,100175.65
2022-09-06T06:10:02.276Z,100175.27
2022-09-06T06:13:03.950Z,100176.69
2022-09-06T06:16:14.556Z,100176.04
2022-09-06T06:19:16.300Z,100171.61
2022-09-06T06:22:18.018Z,100169.44
2022-09-06T06:25:23.222Z,100170.20
2022-09-06T06:28:27.025Z,100175.67
2022-09-06T06:31:33.571Z,100181.29
2022-09-06T06:34:45.718Z,100168.18
2022-09-06T06:37:47.684Z,100167.83
2022-09-06T06:40:49.489Z,100169.25
2022-09-06T06:44:06.382Z,100168.34
2022-09-06T06:47:10.820Z,100167.05
2022-09-06T06:50:13.177Z,100164.50
2022-09-06T06:53:14.971Z,100162.88
2022-09-06T06:56:23.663Z,100160.89
2022-09-06T06:59:25.490Z,100159.95
2022-09-06T07:02:27.431Z,100161.55
2022-09-06T07:08:51.079Z,100167.39
2022-09-06T07:11:53.315Z,100174.78
2022-09-06T07:14:55.710Z,100180.42
2022-09-06T07:17:57.902Z,100180.11
2022-09-06T07:24:21.391Z,100181.45
2022-09-06T07:30:45.122Z,100178.61
2022-09-06T07:33:46.919Z,100174.39
2022-09-06T07:36:48.821Z,100175.46
2022-09-06T07:39:51.332Z,100179.52
2022-09-06T07:42:56.487Z,100183.52
2022-09-06T07:46:05.852Z,100185.09
2022-09-06T07:49:07.695Z,100187.23
2022-09-06T07:55:31.018Z,100177.34
2022-09-06T07:58:33.809Z,100175.30
2022-09-06T08:01:39.652Z,100176.91
2022-09-06T08:04:42.724Z,100171.66
2022-09-06T08:07:44.448Z,100169.54
2022-09-06T08:10:51.281Z,100169.88
2022-09-06T08:13:55.144Z,100163.14
2022-09-06T08:16:56.801Z,100164.11
2022-09-06T08:19:58.600Z,100153.80
2022-09-06T08:23:00.398Z,100153.63
2022-09-06T08:26:02.253Z,100149.24
2022-09-06T08:29:06.958Z,100155.33
2022-09-06T08:32:08.783Z,100153.28
2022-09-06T08:35:10.636Z,100145.70
2022-09-06T08:38:12.550Z,100136.53
2022-09-06T08:41:14.146Z,100132.27
2022-09-06T08:47:41.404Z,100131.13
2022-09-06T08:50:49.593Z,100133.90
2022-09-06T08:53:52.340Z,100124.45
2022-09-06T08:57:11.211Z,100123.98
2022-09-06T09:00:14.072Z,100122.93
2022-09-06T09:03:19.232Z,100123.17
2022-09-06T09:06:21.668Z,100121.06
2022-09-06T09:09:23.832Z,100120.02
2022-09-06T09:12:26.814Z,100120.71
2022-09-06T09:15:28.970Z,100116.81
2022-09-06T09:18:35.362Z,100116.36
2022-09-06T09:21:40.144Z,100112.20
2022-09-06T09:24:41.809Z,100113.68
2022-09-06T09:27:44.407Z,100106.73
2022-09-06T09:30:50.070Z,100100.86
2022-09-06T09:33:52.519Z,100099.91
2022-09-06T09:40:50.873Z,100091.56
2022-09-06T09:44:05.633Z,100084.80
2022-09-06T09:47:31.189Z,100077.62
2022-09-06T09:50:35.191Z,100077.23
2022-09-06T09:53:50.437Z,100069.58
2022-09-06T09:56:53.100Z,100071.42
2022-09-06T10:00:01.427Z,100069.73
2022-09-06T10:03:19.416Z,100065.20
2022-09-06T10:09:49.762Z,100050.86
2022-09-06T10:13:26.726Z,100053.37
2022-09-06T10:16:43.717Z,100050.16
2022-09-06T10:19:46.949Z,100044.30
2022-09-06T10:23:10.198Z,100043.61
2022-09-06T10:26:22.980Z,100034.84
2022-09-06T10:29:41.663Z,100035.02
2022-09-06T10:33:01.013Z,100024.45
2022-09-06T10:36:03.781Z,100014.45
2022-09-06T10:39:49.248Z,100021.23
2022-09-06T10:42:55.381Z,100016.70
2022-09-06T10:45:59.711Z,100020.75
2022-09-06T10:49:01.412Z,100022.72
2022-09-06T10:52:07.061Z,100021.41
2022-09-06T10:55:12.862Z,100013.92
2022-09-06T10:58:22.934Z,100015.75
2022-09-06T11:01:46.745Z,100017.02
2022-09-06T11:11:51.093Z,100016.61
2022-09-06T11:14:52.829Z,100016.40
2022-09-06T11:18:05.854Z,100008.52
2022-09-06T11:21:35.485Z,100004.98
2022-09-06T11:24:48.100Z,100000.23
2022-09-06T11:27:58.211Z,100000.63
2022-09-06T11:31:00.573Z,99990.31
2022-09-06T11:34:20.500Z,99985.88
2022-09-06T11:37:32.788Z,99986.30
2022-09-06T11:40:42.471Z,99983.42
2022-09-06T11:43:46.388Z,99975.67
2022-09-06T11:46:48.619Z,99978.13
2022-09-06T11:49:50.516Z,99981.39
2022-09-06T11:52:55.614Z,99974.82
2022-09-06T11:56:00.348Z,99971.94
2022-09-06T11:59:08.164Z,99964.82
2022-09-06T12:02:29.871Z,99963.26
2022-09-06T12:05:32.641Z,99959.81
2022-09-06T12:08:34.606Z,99955.68
2022-09-06T12:11:43.311Z,99957.88
2022-09-06T12:14:49.399Z,99954.69
2022-09-06T12:17:51.121Z,99956.89
2022-09-06T12:20:52.985Z,99952.09
2022-09-06T12:23:54.762Z,99945.79
2022-09-06T12:27:16.234Z,99941.17
2022-09-06T12:30:31.486Z,99942.52
2022-09-06T12:33:36.579Z,99934.88
2022-09-06T12:36:48.886Z,99939.14
2022-09-06T12:39:58.551Z,99934.43
2022-09-06T12:43:03.017Z,99931.39
2022-09-06T12:46:07.460Z,99930.50
2022-09-06T12:49:11.777Z,99932.98
2022-09-06T12:52:16.164Z,99924.04
2022-09-06T12:55:27.358Z,99924.80
2022-09-06T12:58:32.301Z,99925.35
2022-09-06T13:01:35.014Z,99923.00
2022-09-06T13:04:43.305Z,99923.15
2022-09-06T13:07:53.735Z,99913.85
2022-09-06T13:10:55.696Z,99914.50
2022-09-06T13:13:57.664Z,99914.14
2022-09-06T13:17:00.119Z,99909.44
2022-09-06T13:20:31.623Z,99901.52
2022-09-06T13:23:53.137Z,99902.25
2022-09-06T13:26:54.999Z,99902.27
2022-09-06T13:30:00.902Z,99903.91
2022-09-06T13:33:04.536Z,99906.77
2022-09-06T13:36:12.237Z,99904.96
2022-09-06T13:39:29.375Z,99905.48
2022-09-06T13:42:34.078Z,99899.70
2022-09-06T13:45:36.125Z,99898.66
2022-09-06T13:48:39.688Z,99892.30
2022-09-06T13:51:43.358Z,99892.92
2022-09-06T13:54:45.736Z,99892.92
2022-09-06T13:57:47.357Z,99895.02
2022-09-06T14:00:49.283Z,99887.38
2022-09-06T14:03:51.106Z,99882.14
2022-09-06T14:06:54.175Z,99878.28
2022-09-06T14:09:56.645Z,99875.63
2022-09-06T14:12:58.414Z,99875.06
2022-09-06T14:16:00.356Z,99875.44
2022-09-06T14:19:03.288Z,99872.53
2022-09-06T14:22:06.984Z,99867.68
2022-09-06T14:25:10.178Z,99869.40
2022-09-06T14:28:11.839Z,99871.50
2022-09-06T14:31:16.068Z,99869.29
2022-09-06T14:34:17.919Z,99865.11
2022-09-06T14:37:21.690Z,99869.05
2022-09-06T14:40:23.714Z,99869.80
2022-09-06T14:43:25.386Z,99866.13
2022-09-06T14:46:28.321Z,99862.98
2022-09-06T14:49:30.216Z,99859.84
2022-09-06T14:52:31.915Z,99858.52
2022-09-06T14:55:34.173Z,99851.56
2022-09-06T14:58:37.848Z,99846.20
2022-09-06T15:01:39.710Z,99843.80
2022-09-06T15:04:42.053Z,99841.64
2022-09-06T15:07:43.753Z,99841.49
2022-09-06T15:10:54.281Z,99837.88
2022-09-06T15:13:56.790Z,99842.36
2022-09-06T15:17:00.099Z,99846.23
2022-09-06T15:20:02.258Z,99850.42
2022-09-06T15:26:27.591Z,99850.90
2022-09-06T15:29:29.496Z,99850.00
2022-09-06T15:32:32.042Z,99849.42
2022-09-06T15:35:33.959Z,99842.33
2022-09-06T15:38:42.897Z,99839.42
2022-09-06T15:41:44.655Z,99835.33
2022-09-06T15:44:46.371Z,99832.23
2022-09-06T15:47:48.030Z,99832.11
2022-09-06T15:50:51.634Z,99837.06
2022-09-06T15:53:53.807Z,99835.31
2022-09-06T15:56:58.200Z,99835.75
2022-09-06T16:00:00.115Z,99832.65
2022-09-06T16:03:02.054Z,99832.92
2022-09-06T16:09:28.530Z,99837.83
2022-09-06T16:12:30.241Z,99833.30
2022-09-06T16:15:32.117Z,99837.97
2022-09-06T16:18:39.098Z,99836.08
2022-09-06T16:21:43.042Z,99829.48
2022-09-06T16:24:44.887Z,99833.41
2022-09-06T16:27:46.662Z,99831.25
2022-09-06T16:30:48.487Z,99822.91
2022-09-06T16:33:51.041Z,99825.58
2022-09-06T16:36:53.811Z,99821.23
2022-09-06T16:39:56.236Z,99821.73
2022-09-06T16:42:58.077Z,99824.31
2022-09-06T16:46:01.603Z,99823.86
2022-09-06T16:49:04.538Z,99823.17
2022-09-06T16:52:06.673Z,99821.05
2022-09-06T16:55:08.370Z,99818.69
2022-09-06T16:58:10.684Z,99815.58
2022-09-06T17:01:12.507Z,99815.45
2022-09-06T17:04:15.108Z,99812.48
2022-09-06T17:07:17.354Z,99817.23
2022-09-06T17:10:19.085Z,99820.14
2022-09-06T17:13:20.934Z,99819.42
2022-09-06T17:16:42.522Z,99816.98
2022-09-06T17:19:44.496Z,99818.73
2022-09-06T17:22:50.635Z,99820.02
2022-09-06T17:25:52.901Z,99819.47
2022-09-06T17:28:54.908Z,99818.34
2022-09-06T17:31:56.896Z,99816.54
2022-09-06T17:34:58.805Z,99817.09
2022-09-06T17:38:00.604Z,99819.45
2022-09-06T17:41:02.396Z,99824.14
2022-09-06T17:44:06.317Z,99831.46
2022-09-06T17:47:12.834Z,99837.48
2022-09-06T17:50:15.657Z,99841.42
2022-09-06T17:53:17.362Z,99844.35
2022-09-06T17:56:20.118Z,99850.95
2022-09-06T17:59:22.172Z,99852.89
2022-09-06T18:02:23.973Z,99853.45
2022-09-06T18:05:25.798Z,99855.26
2022-09-06T18:08:27.565Z,99855.82
2022-09-06T18:11:32.224Z,99857.66
2022-09-06T18:14:34.453Z,99857.85
2022-09-06T18:17:36.378Z,99857.39
2022-09-06T18:20:39.150Z,99855.93
2022-09-06T18:23:41.104Z,99854.90
2022-09-06T18:26:43.533Z,99858.04
2022-09-06T18:29:45.222Z,99855.93
2022-09-06T18:32:46.892Z,99854.10
2022-09-06T18:35:50.450Z,99859.29
2022-09-06T18:38:52.370Z,99860.98
2022-09-06T18:42:00.390Z,99860.11
2022-09-06T18:45:02.669Z,99864.98
2022-09-06T18:48:05.433Z,99867.34
2022-09-06T18:51:11.434Z,99869.42
2022-09-06T18:54:32.634Z,99869.81
2022-09-06T18:57:34.363Z,99868.67
2022-09-06T19:00:36.872Z,99872.50
2022-09-06T19:03:39.532Z,99874.44
2022-09-06T19:06:42.533Z,99868.61
2022-09-06T19:09:44.576Z,99864.98
2022-09-06T19:12:49.166Z,99865.73
2022-09-06T19:15:53.074Z,99864.27
2022-09-06T19:18:56.184Z,99857.86
2022-09-06T19:21:58.605Z,99857.64
2022-09-06T19:25:00.458Z,99854.55
2022-09-06T19:28:02.329Z,99858.86
2022-09-06T19:31:09.934Z,99857.00
2022-09-06T19:34:13.539Z,99858.57
2022-09-06T19:37:17.444Z,99858.35
2022-09-06T19:40:19.215Z,99860.70
2022-09-06T19:43:21.081Z,99856.50
2022-09-06T19:46:24.007Z,99856.90
2022-09-06T19:49:26.126Z,99856.73
2022-09-06T19:52:27.935Z,99852.33
2022-09-06T19:55:34.374Z,99855.08
2022-09-06T19:58:36.235Z,99849.02
2022-09-06T20:01:39.525Z,99852.60
2022-09-06T20:04:41.629Z,99853.69
2022-09-06T20:07:43.490Z,99849.54
2022-09-06T20:10:55.773Z,99846.89
2022-09-06T20:13:57.938Z,99847.66
2022-09-06T20:17:33.610Z,99842.35
2022-09-06T20:20:35.780Z,99841.23
2022-09-06T20:23:37.546Z,99836.23
2022-09-06T20:26:40.447Z,99838.95
2022-09-06T20:29:42.199Z,99836.56
2022-09-06T20:32:44.073Z,99835.50
2022-09-06T20:35:55.089Z,99836.29
2022-09-06T20:38:57.100Z,99835.80
2022-09-06T20:41:58.869Z,99833.23
2022-09-06T20:45:00.762Z,99832.58
2022-09-06T20:48:02.657Z,99831.81
2022-09-06T20:51:08.524Z,99836.27
2022-09-06T20:54:11.164Z,99840.95
2022-09-06T20:57:13.145Z,99843.57
2022-09-06T21:00:15.296Z,99841.66
2022-09-06T21:03:17.219Z,99842.25
2022-09-06T21:06:20.406Z,99843.17
2022-09-06T21:09:22.245Z,99839.54
2022-09-06T21:12:24.008Z,99841.83
2022-09-06T21:15:25.802Z,99843.58
2022-09-06T21:18:29.212Z,99846.09
2022-09-06T21:21:32.055Z,99840.27
2022-09-06T21:24:34.609Z,99845.37
2022-09-06T21:27:37.994Z,99842.63
2022-09-06T21:30:39.757Z,99833.48
2022-09-06T21:33:46.467Z,99839.61
2022-09-06T21:36:48.297Z,99838.48
2022-09-06T21:39:50.083Z,99839.40
2022-09-06T21:42:51.897Z,99844.52
2022-09-06T21:45:53.660Z,99847.40
2022-09-06T21:48:55.757Z,99844.23
2022-09-06T21:51:57.554Z,99843.91
2022-09-06T21:54:59.590Z,99838.39
2022-09-06T21:58:01.645Z,99835.09
2022-09-06T22:01:04.791Z,99835.02
2022-09-06T22:04:07.322Z,99836.40
2022-09-06T22:07:09.432Z,99834.55
2022-09-06T22:10:11.325Z,99833.70
2022-09-06T22:13:13.362Z,99828.66
2022-09-06T22:16:16.586Z,99821.54
2022-09-06T22:19:18.551Z,99819.44
2022-09-06T22:22:20.397Z,99819.50
2022-09-06T22:25:22.210Z,99818.83
2022-09-06T22:28:24.054Z,99815.02
2022-09-06T22:31:27.317Z,99812.68
2022-09-06T22:34:29.374Z,99811.06
2022-09-06T22:37:31.537Z,99813.16
2022-09-06T22:40:33.524Z,99814.80
2022-09-06T22:43:35.917Z,99810.67
2022-09-06T22:46:38.446Z,99809.95
2022-09-06T22:49:40.281Z,99801.82
2022-09-06T22:52:42.167Z,99801.73
2022-09-06T22:55:47.517Z,99801.23
2022-09-06T22:58:49.339Z,99806.36
2022-09-06T23:01:51.238Z,99801.99
2022-09-06T23:05:12.939Z,99799.99
2022-09-06T23:08:15.904Z,99806.77
2022-09-06T23:11:19.013Z,99807.79
2022-09-06T23:14:20.994Z,99802.18
2022-09-06T23:17:22.791Z,99801.08
2022-09-06T23:20:24.646Z,99794.23
2022-09-06T23:23:26.436Z,99796.13
2022-09-06T23:26:31.608Z,99801.91
2022-09-06T23:29:34.521Z,99797.50
2022-09-06T23:32:36.468Z,99794.79
2022-09-06T23:35:39.443Z,99793.56
2022-09-06T23:38:42.807Z,99791.29
2022-09-06T23:41:44.737Z,99786.59
2022-09-06T23:44:46.631Z,99787.41
2022-09-06T23:47:48.518Z,99784.52
2022-09-06T23:50:50.798Z,99782.25
2022-09-06T23:53:52.885Z,99785.34
2022-09-06T23:56:54.745Z,99784.06
2022-09-06T23:59:56.578Z,99783.38
